sensor_id;sensor_type;location;lat;lon;timestamp;temperature;humidity
758;DHT22;363;48.764;9.172;2022-11-20T00:02:21;7.90;99.90
758;DHT22;363;48.764;9.172;2022-11-20T00:04:47;7.90;99.90
758;DHT22;363;48.764;9.172;2022-11-20T00:07:13;7.70;99.90
758;DHT22;363;48.764;9.172;2022-11-20T00:09:38;7.90;99.90
758;DHT22;363;48.764;9.172;2022-11-20T00:12:04;7.30;99.90
758;DHT22;363;48.764;9.172;2022-11-20T00:14:30;7.80;99.90
758;DHT22;363;48.764;9.172;2022-11-20T00:16:55;7.60;99.90
758;DHT22;363;48.764;9.172;2022-11-20T00:19:21;7.70;99.90
758;DHT22;363;48.764;9.172;2022-11-20T00:21:46;7.50;99.90
758;DHT22;363;48.764;9.172;2022-11-20T00:24:12;7.60;99.90
758;DHT22;363;48.764;9.172;2022-11-20T00:26:38;7.50;99.90
758;DHT22;363;48.764;9.172;2022-11-20T00:29:04;7.50;99.90
758;DHT22;363;48.764;9.172;2022-11-20T00:31:30;7.50;99.90
758;DHT22;363;48.764;9.172;2022-11-20T00:33:56;7.50;99.90
758;DHT22;363;48.764;9.172;2022-11-20T00:36:26;7.70;99.90
758;DHT22;363;48.764;9.172;2022-11-20T00:38:57;7.10;99.90
758;DHT22;363;48.764;9.172;2022-11-20T00:41:23;7.80;99.90
758;DHT22;363;48.764;9.172;2022-11-20T00:43:50;7.50;99.90
758;DHT22;363;48.764;9.172;2022-11-20T00:46:18;7.40;99.90
758;DHT22;363;48.764;9.172;2022-11-20T00:48:44;7.60;99.90
758;DHT22;363;48.764;9.172;2022-11-20T00:51:15;7.70;99.90
758;DHT22;363;48.764;9.172;2022-11-20T00:53:41;7.60;99.90
758;DHT22;363;48.764;9.172;2022-11-20T00:56:11;7.70;99.90
758;DHT22;363;48.764;9.172;2022-11-20T00:58:38;7.80;99.90
758;DHT22;363;48.764;9.172;2022-11-20T01:03:35;7.80;99.90
758;DHT22;363;48.764;9.172;2022-11-20T01:06:06;7.80;99.90
758;DHT22;363;48.764;9.172;2022-11-20T01:08:33;7.80;99.90
758;DHT22;363;48.764;9.172;2022-11-20T01:11:01;7.80;99.90
758;DHT22;363;48.764;9.172;2022-11-20T01:13:28;8.00;99.90
758;DHT22;363;48.764;9.172;2022-11-20T01:18:45;7.90;99.90
758;DHT22;363;48.764;9.172;2022-11-20T01:21:14;8.00;99.90
758;DHT22;363;48.764;9.172;2022-11-20T01:23:42;8.00;99.90
758;DHT22;363;48.764;9.172;2022-11-20T01:26:13;7.90;99.90
758;DHT22;363;48.764;9.172;2022-11-20T01:28:39;7.90;99.90
758;DHT22;363;48.764;9.172;2022-11-20T01:31:26;8.00;99.90
758;DHT22;363;48.764;9.172;2022-11-20T01:33:54;8.10;99.90
758;DHT22;363;48.764;9.172;2022-11-20T01:36:21;7.90;99.90
758;DHT22;363;48.764;9.172;2022-11-20T01:38:51;8.00;99.90
758;DHT22;363;48.764;9.172;2022-11-20T01:41:16;8.00;99.90
758;DHT22;363;48.764;9.172;2022-11-20T01:44:01;7.80;99.90
758;DHT22;363;48.764;9.172;2022-11-20T01:46:28;8.00;99.90
758;DHT22;363;48.764;9.172;2022-11-20T01:51:38;8.00;99.90
758;DHT22;363;48.764;9.172;2022-11-20T01:54:07;7.90;99.90
758;DHT22;363;48.764;9.172;2022-11-20T01:56:38;7.70;99.90
758;DHT22;363;48.764;9.172;2022-11-20T01:59:07;7.70;99.90
758;DHT22;363;48.764;9.172;2022-11-20T02:01:34;7.60;99.90
758;DHT22;363;48.764;9.172;2022-11-20T02:04:00;7.70;99.90
758;DHT22;363;48.764;9.172;2022-11-20T02:06:30;7.80;99.90
758;DHT22;363;48.764;9.172;2022-11-20T02:08:57;7.70;99.90
758;DHT22;363;48.764;9.172;2022-11-20T02:11:22;7.90;99.90
758;DHT22;363;48.764;9.172;2022-11-20T02:13:48;7.80;99.90
758;DHT22;363;48.764;9.172;2022-11-20T02:16:50;7.70;99.90
758;DHT22;363;48.764;9.172;2022-11-20T02:19:31;7.60;99.90
758;DHT22;363;48.764;9.172;2022-11-20T02:22:19;7.70;99.90
758;DHT22;363;48.764;9.172;2022-11-20T02:24:47;7.50;99.90
758;DHT22;363;48.764;9.172;2022-11-20T02:27:15;7.50;99.90
758;DHT22;363;48.764;9.172;2022-11-20T02:29:57;7.40;99.90
758;DHT22;363;48.764;9.172;2022-11-20T02:32:33;7.60;99.90
758;DHT22;363;48.764;9.172;2022-11-20T02:37:47;7.50;99.90
758;DHT22;363;48.764;9.172;2022-11-20T02:40:14;7.40;99.90
758;DHT22;363;48.764;9.172;2022-11-20T02:42:40;7.50;99.90
758;DHT22;363;48.764;9.172;2022-11-20T02:45:06;7.50;99.90
758;DHT22;363;48.764;9.172;2022-11-20T02:47:32;7.40;99.90
758;DHT22;363;48.764;9.172;2022-11-20T02:49:59;7.30;99.90
758;DHT22;363;48.764;9.172;2022-11-20T02:52:25;7.30;99.90
758;DHT22;363;48.764;9.172;2022-11-20T02:54:51;7.50;99.90
758;DHT22;363;48.764;9.172;2022-11-20T02:57:17;7.30;99.90
758;DHT22;363;48.764;9.172;2022-11-20T02:59:43;7.30;99.90
758;DHT22;363;48.764;9.172;2022-11-20T03:02:08;7.60;99.90
758;DHT22;363;48.764;9.172;2022-11-20T03:04:34;7.60;99.90
758;DHT22;363;48.764;9.172;2022-11-20T03:07:00;7.50;99.90
758;DHT22;363;48.764;9.172;2022-11-20T03:09:26;7.70;99.90
758;DHT22;363;48.764;9.172;2022-11-20T03:11:51;7.60;99.90
758;DHT22;363;48.764;9.172;2022-11-20T03:14:17;7.50;99.90
758;DHT22;363;48.764;9.172;2022-11-20T03:16:43;7.60;99.90
758;DHT22;363;48.764;9.172;2022-11-20T03:19:09;7.40;99.90
758;DHT22;363;48.764;9.172;2022-11-20T03:21:35;7.40;99.90
758;DHT22;363;48.764;9.172;2022-11-20T03:24:01;7.20;99.90
758;DHT22;363;48.764;9.172;2022-11-20T03:26:27;7.40;99.90
758;DHT22;363;48.764;9.172;2022-11-20T03:28:58;7.60;99.90
758;DHT22;363;48.764;9.172;2022-11-20T03:31:38;7.30;99.90
758;DHT22;363;48.764;9.172;2022-11-20T03:34:07;7.60;99.90
758;DHT22;363;48.764;9.172;2022-11-20T03:36:33;7.70;99.90
758;DHT22;363;48.764;9.172;2022-11-20T03:38:59;7.80;99.90
758;DHT22;363;48.764;9.172;2022-11-20T03:41:28;7.60;99.90
758;DHT22;363;48.764;9.172;2022-11-20T03:43:56;7.70;99.90
758;DHT22;363;48.764;9.172;2022-11-20T03:46:22;7.60;99.90
758;DHT22;363;48.764;9.172;2022-11-20T03:48:48;7.60;99.90
758;DHT22;363;48.764;9.172;2022-11-20T03:51:15;7.60;99.90
758;DHT22;363;48.764;9.172;2022-11-20T03:53:43;7.30;99.90
758;DHT22;363;48.764;9.172;2022-11-20T03:56:10;7.40;99.90
758;DHT22;363;48.764;9.172;2022-11-20T03:58:37;7.50;99.90
758;DHT22;363;48.764;9.172;2022-11-20T04:01:11;7.30;99.90
758;DHT22;363;48.764;9.172;2022-11-20T04:03:38;7.10;99.90
758;DHT22;363;48.764;9.172;2022-11-20T04:08:33;7.20;99.90
758;DHT22;363;48.764;9.172;2022-11-20T04:11:13;7.20;99.90
758;DHT22;363;48.764;9.172;2022-11-20T04:13:40;7.00;99.90
758;DHT22;363;48.764;9.172;2022-11-20T04:16:07;7.00;99.90
758;DHT22;363;48.764;9.172;2022-11-20T04:18:33;7.00;99.90
758;DHT22;363;48.764;9.172;2022-11-20T04:20:59;6.90;99.90
758;DHT22;363;48.764;9.172;2022-11-20T04:23:25;7.10;99.90
758;DHT22;363;48.764;9.172;2022-11-20T04:25:51;7.00;99.90
758;DHT22;363;48.764;9.172;2022-11-20T04:28:17;6.90;99.90
758;DHT22;363;48.764;9.172;2022-11-20T04:30:43;7.10;99.90
758;DHT22;363;48.764;9.172;2022-11-20T04:33:09;7.10;99.90
758;DHT22;363;48.764;9.172;2022-11-20T04:35:35;7.20;99.90
758;DHT22;363;48.764;9.172;2022-11-20T04:38:01;7.20;99.90
758;DHT22;363;48.764;9.172;2022-11-20T04:40:30;7.20;99.90
758;DHT22;363;48.764;9.172;2022-11-20T04:42:56;7.40;99.90
758;DHT22;363;48.764;9.172;2022-11-20T04:45:24;7.20;99.90
758;DHT22;363;48.764;9.172;2022-11-20T04:47:50;6.90;99.90
758;DHT22;363;48.764;9.172;2022-11-20T04:50:15;6.80;99.90
758;DHT22;363;48.764;9.172;2022-11-20T04:52:41;7.10;99.90
758;DHT22;363;48.764;9.172;2022-11-20T04:55:07;7.10;99.90
758;DHT22;363;48.764;9.172;2022-11-20T04:57:32;7.20;99.90
758;DHT22;363;48.764;9.172;2022-11-20T04:59:58;7.10;99.90
758;DHT22;363;48.764;9.172;2022-11-20T05:02:23;7.10;99.90
758;DHT22;363;48.764;9.172;2022-11-20T05:04:49;7.10;99.90
758;DHT22;363;48.764;9.172;2022-11-20T05:07:15;6.90;99.90
758;DHT22;363;48.764;9.172;2022-11-20T05:09:40;6.90;99.90
758;DHT22;363;48.764;9.172;2022-11-20T05:12:08;7.20;99.90
758;DHT22;363;48.764;9.172;2022-11-20T05:14:34;7.20;99.90
758;DHT22;363;48.764;9.172;2022-11-20T05:16:59;7.10;99.90
758;DHT22;363;48.764;9.172;2022-11-20T05:19:25;7.30;99.90
758;DHT22;363;48.764;9.172;2022-11-20T05:21:51;7.40;99.90
758;DHT22;363;48.764;9.172;2022-11-20T05:24:16;7.30;99.90
758;DHT22;363;48.764;9.172;2022-11-20T05:26:42;7.30;99.90
758;DHT22;363;48.764;9.172;2022-11-20T05:29:13;7.50;99.90
758;DHT22;363;48.764;9.172;2022-11-20T05:31:40;7.20;99.90
758;DHT22;363;48.764;9.172;2022-11-20T05:34:06;7.40;99.90
758;DHT22;363;48.764;9.172;2022-11-20T05:36:32;7.40;99.90
758;DHT22;363;48.764;9.172;2022-11-20T05:38:58;7.50;99.90
758;DHT22;363;48.764;9.172;2022-11-20T05:41:24;7.60;99.90
758;DHT22;363;48.764;9.172;2022-11-20T05:43:50;7.60;99.90
758;DHT22;363;48.764;9.172;2022-11-20T05:46:18;7.50;99.90
758;DHT22;363;48.764;9.172;2022-11-20T05:48:45;7.50;99.90
758;DHT22;363;48.764;9.172;2022-11-20T05:51:13;7.40;99.90
758;DHT22;363;48.764;9.172;2022-11-20T05:53:40;7.30;99.90
758;DHT22;363;48.764;9.172;2022-11-20T05:56:11;7.50;99.90
758;DHT22;363;48.764;9.172;2022-11-20T05:58:37;7.50;99.90
758;DHT22;363;48.764;9.172;2022-11-20T06:03:33;7.80;99.90
758;DHT22;363;48.764;9.172;2022-11-20T06:05:59;7.70;99.90
758;DHT22;363;48.764;9.172;2022-11-20T06:08:25;7.70;99.90
758;DHT22;363;48.764;9.172;2022-11-20T06:10:51;8.00;99.90
758;DHT22;363;48.764;9.172;2022-11-20T06:13:17;8.00;99.90
758;DHT22;363;48.764;9.172;2022-11-20T06:15:48;8.10;99.90
758;DHT22;363;48.764;9.172;2022-11-20T06:18:14;7.80;99.90
758;DHT22;363;48.764;9.172;2022-11-20T06:20:40;7.80;99.90
758;DHT22;363;48.764;9.172;2022-11-20T06:23:05;8.00;99.90
758;DHT22;363;48.764;9.172;2022-11-20T06:25:31;8.00;99.90
758;DHT22;363;48.764;9.172;2022-11-20T06:27:57;7.80;99.90
758;DHT22;363;48.764;9.172;2022-11-20T06:30:22;8.00;99.90
758;DHT22;363;48.764;9.172;2022-11-20T06:32:48;7.60;99.90
758;DHT22;363;48.764;9.172;2022-11-20T06:35:14;7.90;99.90
758;DHT22;363;48.764;9.172;2022-11-20T06:37:40;7.80;99.90
758;DHT22;363;48.764;9.172;2022-11-20T06:40:06;7.90;99.90
758;DHT22;363;48.764;9.172;2022-11-20T06:42:32;7.80;99.90
758;DHT22;363;48.764;9.172;2022-11-20T06:44:58;7.80;99.90
758;DHT22;363;48.764;9.172;2022-11-20T06:47:23;7.80;99.90
758;DHT22;363;48.764;9.172;2022-11-20T06:49:49;8.00;99.90
758;DHT22;363;48.764;9.172;2022-11-20T06:52:14;7.90;99.90
758;DHT22;363;48.764;9.172;2022-11-20T06:54:40;8.00;99.90
758;DHT22;363;48.764;9.172;2022-11-20T06:57:06;7.90;99.90
758;DHT22;363;48.764;9.172;2022-11-20T06:59:31;7.70;99.90
758;DHT22;363;48.764;9.172;2022-11-20T07:01:57;7.90;99.90
758;DHT22;363;48.764;9.172;2022-11-20T07:04:22;7.70;99.90
758;DHT22;363;48.764;9.172;2022-11-20T07:06:48;8.00;99.90
758;DHT22;363;48.764;9.172;2022-11-20T07:09:14;7.80;99.90
758;DHT22;363;48.764;9.172;2022-11-20T07:11:40;7.90;99.90
758;DHT22;363;48.764;9.172;2022-11-20T07:14:05;7.90;99.90
758;DHT22;363;48.764;9.172;2022-11-20T07:16:32;7.80;99.90
758;DHT22;363;48.764;9.172;2022-11-20T07:18:58;7.90;99.90
758;DHT22;363;48.764;9.172;2022-11-20T07:21:24;7.90;99.90
758;DHT22;363;48.764;9.172;2022-11-20T07:23:49;7.80;99.90
758;DHT22;363;48.764;9.172;2022-11-20T07:26:15;8.20;99.90
758;DHT22;363;48.764;9.172;2022-11-20T07:28:44;7.90;99.90
758;DHT22;363;48.764;9.172;2022-11-20T07:31:10;8.10;99.90
758;DHT22;363;48.764;9.172;2022-11-20T07:33:37;8.00;99.90
758;DHT22;363;48.764;9.172;2022-11-20T07:36:03;8.10;99.90
758;DHT22;363;48.764;9.172;2022-11-20T07:38:29;8.20;99.90
758;DHT22;363;48.764;9.172;2022-11-20T07:40:55;8.10;99.90
758;DHT22;363;48.764;9.172;2022-11-20T07:43:23;8.30;99.90
758;DHT22;363;48.764;9.172;2022-11-20T07:45:48;8.20;99.90
758;DHT22;363;48.764;9.172;2022-11-20T07:48:14;8.50;99.90
758;DHT22;363;48.764;9.172;2022-11-20T07:50:40;8.60;99.90
758;DHT22;363;48.764;9.172;2022-11-20T07:53:06;8.40;99.90
758;DHT22;363;48.764;9.172;2022-11-20T07:55:32;8.70;99.90
758;DHT22;363;48.764;9.172;2022-11-20T07:57:58;8.80;99.90
758;DHT22;363;48.764;9.172;2022-11-20T08:00:25;8.50;99.90
758;DHT22;363;48.764;9.172;2022-11-20T08:02:51;8.50;99.90
758;DHT22;363;48.764;9.172;2022-11-20T08:05:17;8.80;99.90
758;DHT22;363;48.764;9.172;2022-11-20T08:07:43;8.70;99.90
758;DHT22;363;48.764;9.172;2022-11-20T08:10:12;8.70;99.90
758;DHT22;363;48.764;9.172;2022-11-20T08:12:48;9.00;99.90
758;DHT22;363;48.764;9.172;2022-11-20T08:15:33;8.90;99.90
758;DHT22;363;48.764;9.172;2022-11-20T08:18:03;8.90;99.90
758;DHT22;363;48.764;9.172;2022-11-20T08:20:29;8.60;99.90
758;DHT22;363;48.764;9.172;2022-11-20T08:23:02;8.90;99.90
758;DHT22;363;48.764;9.172;2022-11-20T08:25:29;8.90;99.90
758;DHT22;363;48.764;9.172;2022-11-20T08:27:57;9.00;99.90
758;DHT22;363;48.764;9.172;2022-11-20T08:30:23;8.80;99.90
758;DHT22;363;48.764;9.172;2022-11-20T08:32:49;8.90;99.90
758;DHT22;363;48.764;9.172;2022-11-20T08:35:14;9.10;99.90
758;DHT22;363;48.764;9.172;2022-11-20T08:37:40;9.20;99.90
758;DHT22;363;48.764;9.172;2022-11-20T08:40:09;9.10;99.90
758;DHT22;363;48.764;9.172;2022-11-20T08:42:35;8.90;99.90
758;DHT22;363;48.764;9.172;2022-11-20T08:45:01;9.10;99.90
758;DHT22;363;48.764;9.172;2022-11-20T08:47:27;9.20;99.90
758;DHT22;363;48.764;9.172;2022-11-20T08:49:52;9.10;99.90
758;DHT22;363;48.764;9.172;2022-11-20T08:52:21;9.40;99.90
758;DHT22;363;48.764;9.172;2022-11-20T08:54:46;9.30;99.90
758;DHT22;363;48.764;9.172;2022-11-20T08:57:12;9.40;99.90
758;DHT22;363;48.764;9.172;2022-11-20T08:59:38;9.60;99.90
758;DHT22;363;48.764;9.172;2022-11-20T09:02:03;9.70;99.90
758;DHT22;363;48.764;9.172;2022-11-20T09:04:29;9.90;99.90
758;DHT22;363;48.764;9.172;2022-11-20T09:06:55;9.90;99.90
758;DHT22;363;48.764;9.172;2022-11-20T09:09:20;10.10;99.90
758;DHT22;363;48.764;9.172;2022-11-20T09:11:46;10.10;99.90
758;DHT22;363;48.764;9.172;2022-11-20T09:14:12;10.10;99.90
758;DHT22;363;48.764;9.172;2022-11-20T09:16:37;10.00;99.90
758;DHT22;363;48.764;9.172;2022-11-20T09:19:03;9.90;99.90
758;DHT22;363;48.764;9.172;2022-11-20T09:21:29;9.80;99.90
758;DHT22;363;48.764;9.172;2022-11-20T09:23:54;9.90;99.90
758;DHT22;363;48.764;9.172;2022-11-20T09:26:20;9.60;99.90
758;DHT22;363;48.764;9.172;2022-11-20T09:28:45;9.60;99.90
758;DHT22;363;48.764;9.172;2022-11-20T09:31:23;9.90;99.90
758;DHT22;363;48.764;9.172;2022-11-20T09:33:49;9.90;99.90
758;DHT22;363;48.764;9.172;2022-11-20T09:36:15;9.60;99.90
758;DHT22;363;48.764;9.172;2022-11-20T09:38:46;9.70;99.90
758;DHT22;363;48.764;9.172;2022-11-20T09:49:33;9.50;99.90
758;DHT22;363;48.764;9.172;2022-11-20T09:52:22;9.40;99.90
758;DHT22;363;48.764;9.172;2022-11-20T09:54:53;9.50;99.90
758;DHT22;363;48.764;9.172;2022-11-20T09:57:23;9.80;99.90
758;DHT22;363;48.764;9.172;2022-11-20T10:00:01;10.00;99.90
758;DHT22;363;48.764;9.172;2022-11-20T10:02:37;9.60;99.90
758;DHT22;363;48.764;9.172;2022-11-20T10:05:25;10.10;99.90
758;DHT22;363;48.764;9.172;2022-11-20T10:24:24;9.40;99.90
758;DHT22;363;48.764;9.172;2022-11-20T10:27:38;9.60;99.90
758;DHT22;363;48.764;9.172;2022-11-20T10:30:09;9.50;99.90
758;DHT22;363;48.764;9.172;2022-11-20T10:32:45;9.30;99.90
758;DHT22;363;48.764;9.172;2022-11-20T10:37:50;9.50;99.90
758;DHT22;363;48.764;9.172;2022-11-20T10:40:25;9.20;99.90
758;DHT22;363;48.764;9.172;2022-11-20T10:42:57;9.10;99.90
758;DHT22;363;48.764;9.172;2022-11-20T10:47:54;9.50;99.90
758;DHT22;363;48.764;9.172;2022-11-20T10:50:22;9.20;99.90
758;DHT22;363;48.764;9.172;2022-11-20T10:53:10;9.10;99.90
758;DHT22;363;48.764;9.172;2022-11-20T10:55:47;9.10;99.90
758;DHT22;363;48.764;9.172;2022-11-20T11:00:45;9.10;99.90
758;DHT22;363;48.764;9.172;2022-11-20T11:03:31;9.20;99.90
758;DHT22;363;48.764;9.172;2022-11-20T11:06:06;9.10;99.90
758;DHT22;363;48.764;9.172;2022-11-20T11:08:37;8.90;99.90
758;DHT22;363;48.764;9.172;2022-11-20T11:13:44;9.00;99.90
758;DHT22;363;48.764;9.172;2022-11-20T11:16:44;9.10;99.90
758;DHT22;363;48.764;9.172;2022-11-20T11:19:14;9.10;99.90
758;DHT22;363;48.764;9.172;2022-11-20T11:21:49;9.20;99.90
758;DHT22;363;48.764;9.172;2022-11-20T11:24:22;9.00;99.90
758;DHT22;363;48.764;9.172;2022-11-20T11:27:01;8.90;99.90
758;DHT22;363;48.764;9.172;2022-11-20T11:29:32;9.30;99.90
758;DHT22;363;48.764;9.172;2022-11-20T11:32:15;9.40;99.90
758;DHT22;363;48.764;9.172;2022-11-20T11:34:41;9.70;99.90
758;DHT22;363;48.764;9.172;2022-11-20T11:37:19;9.70;99.90
758;DHT22;363;48.764;9.172;2022-11-20T11:39:47;9.90;99.90
758;DHT22;363;48.764;9.172;2022-11-20T11:42:17;9.80;99.90
758;DHT22;363;48.764;9.172;2022-11-20T11:44:45;9.90;99.90
758;DHT22;363;48.764;9.172;2022-11-20T11:47:31;10.00;99.90
758;DHT22;363;48.764;9.172;2022-11-20T11:55:35;9.90;99.90
758;DHT22;363;48.764;9.172;2022-11-20T12:00:58;10.00;99.90
758;DHT22;363;48.764;9.172;2022-11-20T12:04:13;9.80;99.90
758;DHT22;363;48.764;9.172;2022-11-20T12:06:36;9.80;99.90
758;DHT22;363;48.764;9.172;2022-11-20T12:09:07;10.00;99.90
758;DHT22;363;48.764;9.172;2022-11-20T12:11:49;10.10;99.90
758;DHT22;363;48.764;9.172;2022-11-20T12:14:29;10.50;99.90
758;DHT22;363;48.764;9.172;2022-11-20T12:16:56;10.40;99.90
758;DHT22;363;48.764;9.172;2022-11-20T12:19:23;10.60;99.90
758;DHT22;363;48.764;9.172;2022-11-20T12:25:09;11.00;99.90
758;DHT22;363;48.764;9.172;2022-11-20T12:47:42;11.00;97.50
758;DHT22;363;48.764;9.172;2022-11-20T12:53:05;11.00;97.10
758;DHT22;363;48.764;9.172;2022-11-20T13:07:08;10.90;96.40
758;DHT22;363;48.764;9.172;2022-11-20T13:09:48;10.30;95.80
758;DHT22;363;48.764;9.172;2022-11-20T13:15:35;10.80;95.50
758;DHT22;363;48.764;9.172;2022-11-20T13:18:03;10.90;96.60
758;DHT22;363;48.764;9.172;2022-11-20T13:20:31;10.90;95.70
758;DHT22;363;48.764;9.172;2022-11-20T13:22:58;10.80;95.80
758;DHT22;363;48.764;9.172;2022-11-20T13:25:28;11.00;95.90
758;DHT22;363;48.764;9.172;2022-11-20T13:27:58;10.80;96.20
758;DHT22;363;48.764;9.172;2022-11-20T13:30:29;11.10;96.00
758;DHT22;363;48.764;9.172;2022-11-20T13:33:08;11.10;95.60
758;DHT22;363;48.764;9.172;2022-11-20T13:35:37;10.50;95.30
758;DHT22;363;48.764;9.172;2022-11-20T13:38:08;10.40;94.60
758;DHT22;363;48.764;9.172;2022-11-20T13:40:38;11.00;94.60
758;DHT22;363;48.764;9.172;2022-11-20T13:43:21;10.90;95.30
758;DHT22;363;48.764;9.172;2022-11-20T13:45:56;10.40;95.40
758;DHT22;363;48.764;9.172;2022-11-20T13:48:25;9.90;96.50
758;DHT22;363;48.764;9.172;2022-11-20T13:50:56;10.30;96.60
758;DHT22;363;48.764;9.172;2022-11-20T13:56:48;10.50;96.70
758;DHT22;363;48.764;9.172;2022-11-20T14:01:53;10.60;96.70
758;DHT22;363;48.764;9.172;2022-11-20T14:04:35;10.70;97.20
758;DHT22;363;48.764;9.172;2022-11-20T14:07:01;10.80;98.80
758;DHT22;363;48.764;9.172;2022-11-20T14:09:32;10.40;99.00
758;DHT22;363;48.764;9.172;2022-11-20T14:11:59;10.40;99.30
758;DHT22;363;48.764;9.172;2022-11-20T14:14:26;10.50;99.80
758;DHT22;363;48.764;9.172;2022-11-20T14:17:04;10.20;99.90
758;DHT22;363;48.764;9.172;2022-11-20T14:19:30;9.90;99.90
758;DHT22;363;48.764;9.172;2022-11-20T14:24:39;9.70;99.90
758;DHT22;363;48.764;9.172;2022-11-20T14:27:05;9.70;99.90
758;DHT22;363;48.764;9.172;2022-11-20T14:29:37;9.30;99.90
758;DHT22;363;48.764;9.172;2022-11-20T14:32:04;10.00;99.90
758;DHT22;363;48.764;9.172;2022-11-20T14:34:32;9.80;99.90
758;DHT22;363;48.764;9.172;2022-11-20T14:37:00;10.00;99.90
758;DHT22;363;48.764;9.172;2022-11-20T14:39:32;9.80;99.90
758;DHT22;363;48.764;9.172;2022-11-20T14:41:59;10.10;99.90
758;DHT22;363;48.764;9.172;2022-11-20T14:44:30;10.00;99.90
758;DHT22;363;48.764;9.172;2022-11-20T14:46:57;9.60;99.90
758;DHT22;363;48.764;9.172;2022-11-20T14:49:24;10.70;99.90
758;DHT22;363;48.764;9.172;2022-11-20T14:52:09;9.90;99.90
758;DHT22;363;48.764;9.172;2022-11-20T14:54:49;9.90;99.90
758;DHT22;363;48.764;9.172;2022-11-20T14:57:28;9.90;99.90
758;DHT22;363;48.764;9.172;2022-11-20T15:00:06;9.80;99.90
758;DHT22;363;48.764;9.172;2022-11-20T15:02:33;9.50;99.90
758;DHT22;363;48.764;9.172;2022-11-20T15:05:00;9.50;99.90
758;DHT22;363;48.764;9.172;2022-11-20T15:12:33;9.40;99.90
758;DHT22;363;48.764;9.172;2022-11-20T15:15:01;9.40;99.90
758;DHT22;363;48.764;9.172;2022-11-20T15:17:28;9.70;99.90
758;DHT22;363;48.764;9.172;2022-11-20T15:19:55;9.50;99.90
758;DHT22;363;48.764;9.172;2022-11-20T15:22:20;9.70;99.90
758;DHT22;363;48.764;9.172;2022-11-20T15:24:46;9.30;99.90
758;DHT22;363;48.764;9.172;2022-11-20T15:27:12;9.30;99.90
758;DHT22;363;48.764;9.172;2022-11-20T15:29:37;9.60;99.90
758;DHT22;363;48.764;9.172;2022-11-20T15:32:03;9.50;99.90
758;DHT22;363;48.764;9.172;2022-11-20T15:34:29;9.20;99.90
758;DHT22;363;48.764;9.172;2022-11-20T15:36:54;9.40;99.90
758;DHT22;363;48.764;9.172;2022-11-20T15:39:20;9.20;99.90
758;DHT22;363;48.764;9.172;2022-11-20T15:41:46;9.50;99.90
758;DHT22;363;48.764;9.172;2022-11-20T15:44:12;9.30;99.90
758;DHT22;363;48.764;9.172;2022-11-20T15:46:40;9.10;99.90
758;DHT22;363;48.764;9.172;2022-11-20T15:49:13;9.20;99.90
758;DHT22;363;48.764;9.172;2022-11-20T15:51:44;9.50;99.90
758;DHT22;363;48.764;9.172;2022-11-20T15:54:12;8.90;99.90
758;DHT22;363;48.764;9.172;2022-11-20T15:56:38;8.70;99.90
758;DHT22;363;48.764;9.172;2022-11-20T15:59:03;9.20;99.90
758;DHT22;363;48.764;9.172;2022-11-20T16:01:29;8.20;99.90
758;DHT22;363;48.764;9.172;2022-11-20T16:03:55;8.90;99.90
758;DHT22;363;48.764;9.172;2022-11-20T16:06:21;8.50;99.90
758;DHT22;363;48.764;9.172;2022-11-20T16:08:46;9.00;99.90
758;DHT22;363;48.764;9.172;2022-11-20T16:11:13;8.90;99.90
758;DHT22;363;48.764;9.172;2022-11-20T16:13:39;9.00;99.90
758;DHT22;363;48.764;9.172;2022-11-20T16:16:29;8.80;99.90
758;DHT22;363;48.764;9.172;2022-11-20T16:18:56;9.20;99.90
758;DHT22;363;48.764;9.172;2022-11-20T16:21:22;8.90;99.90
758;DHT22;363;48.764;9.172;2022-11-20T16:24:00;8.90;99.90
758;DHT22;363;48.764;9.172;2022-11-20T16:26:26;9.10;99.90
758;DHT22;363;48.764;9.172;2022-11-20T16:28:52;8.40;99.90
758;DHT22;363;48.764;9.172;2022-11-20T16:31:19;8.80;99.90
758;DHT22;363;48.764;9.172;2022-11-20T16:33:52;8.70;99.90
758;DHT22;363;48.764;9.172;2022-11-20T16:36:19;8.60;99.90
758;DHT22;363;48.764;9.172;2022-11-20T16:38:45;9.00;99.90
758;DHT22;363;48.764;9.172;2022-11-20T16:41:10;8.80;99.90
758;DHT22;363;48.764;9.172;2022-11-20T16:46:15;8.40;99.90
758;DHT22;363;48.764;9.172;2022-11-20T16:48:41;8.40;99.90
758;DHT22;363;48.764;9.172;2022-11-20T16:51:11;9.30;99.90
758;DHT22;363;48.764;9.172;2022-11-20T16:53:38;8.70;99.90
758;DHT22;363;48.764;9.172;2022-11-20T16:56:18;9.40;99.90
758;DHT22;363;48.764;9.172;2022-11-20T16:58:45;9.20;99.90
758;DHT22;363;48.764;9.172;2022-11-20T17:01:13;8.90;99.90
758;DHT22;363;48.764;9.172;2022-11-20T17:03:40;8.90;99.90
758;DHT22;363;48.764;9.172;2022-11-20T17:06:17;9.00;99.90
758;DHT22;363;48.764;9.172;2022-11-20T17:08:44;8.80;99.90
758;DHT22;363;48.764;9.172;2022-11-20T17:11:12;9.50;99.90
758;DHT22;363;48.764;9.172;2022-11-20T17:13:38;9.10;99.90
758;DHT22;363;48.764;9.172;2022-11-20T17:16:07;9.00;99.90
758;DHT22;363;48.764;9.172;2022-11-20T17:18:33;9.40;99.90
758;DHT22;363;48.764;9.172;2022-11-20T17:20:59;8.40;99.90
758;DHT22;363;48.764;9.172;2022-11-20T17:23:36;8.90;99.90
758;DHT22;363;48.764;9.172;2022-11-20T17:26:05;9.00;99.90
758;DHT22;363;48.764;9.172;2022-11-20T17:28:31;9.40;99.90
758;DHT22;363;48.764;9.172;2022-11-20T17:31:16;8.90;99.90
758;DHT22;363;48.764;9.172;2022-11-20T17:33:44;8.80;99.90
758;DHT22;363;48.764;9.172;2022-11-20T17:36:12;8.90;99.90
758;DHT22;363;48.764;9.172;2022-11-20T17:38:37;9.10;99.90
758;DHT22;363;48.764;9.172;2022-11-20T17:41:04;9.10;99.90
758;DHT22;363;48.764;9.172;2022-11-20T17:43:30;9.10;99.90
758;DHT22;363;48.764;9.172;2022-11-20T17:45:56;8.90;99.90
758;DHT22;363;48.764;9.172;2022-11-20T17:48:22;9.10;99.90
758;DHT22;363;48.764;9.172;2022-11-20T17:50:47;9.40;99.90
758;DHT22;363;48.764;9.172;2022-11-20T17:53:13;9.20;99.90
758;DHT22;363;48.764;9.172;2022-11-20T17:55:38;8.90;99.90
758;DHT22;363;48.764;9.172;2022-11-20T17:58:26;9.00;99.90
758;DHT22;363;48.764;9.172;2022-11-20T18:00:52;9.10;99.90
758;DHT22;363;48.764;9.172;2022-11-20T18:03:17;8.50;99.90
758;DHT22;363;48.764;9.172;2022-11-20T18:05:43;9.40;99.90
758;DHT22;363;48.764;9.172;2022-11-20T18:08:08;9.10;99.90
758;DHT22;363;48.764;9.172;2022-11-20T18:10:34;9.20;99.90
758;DHT22;363;48.764;9.172;2022-11-20T18:13:00;8.90;99.90
758;DHT22;363;48.764;9.172;2022-11-20T18:15:25;9.40;99.90
758;DHT22;363;48.764;9.172;2022-11-20T18:17:51;8.90;99.90
758;DHT22;363;48.764;9.172;2022-11-20T18:20:16;8.90;99.90
758;DHT22;363;48.764;9.172;2022-11-20T18:22:43;9.00;99.90
758;DHT22;363;48.764;9.172;2022-11-20T18:25:09;8.90;99.90
758;DHT22;363;48.764;9.172;2022-11-20T18:27:34;9.10;99.90
758;DHT22;363;48.764;9.172;2022-11-20T18:30:00;9.00;99.90
758;DHT22;363;48.764;9.172;2022-11-20T18:32:25;9.10;99.90
758;DHT22;363;48.764;9.172;2022-11-20T18:34:52;9.20;99.90
758;DHT22;363;48.764;9.172;2022-11-20T18:37:18;9.00;99.90
758;DHT22;363;48.764;9.172;2022-11-20T18:39:43;8.90;99.90
758;DHT22;363;48.764;9.172;2022-11-20T18:42:12;9.50;99.90
758;DHT22;363;48.764;9.172;2022-11-20T18:44:57;9.00;99.90
758;DHT22;363;48.764;9.172;2022-11-20T18:47:29;8.90;99.90
758;DHT22;363;48.764;9.172;2022-11-20T18:49:57;9.40;99.90
758;DHT22;363;48.764;9.172;2022-11-20T18:52:26;9.50;99.90
758;DHT22;363;48.764;9.172;2022-11-20T18:54:52;8.80;99.90
758;DHT22;363;48.764;9.172;2022-11-20T18:57:23;8.80;99.90